sensor_id;sensor_type;location;lat;lon;timestamp;P1;durP1;ratioP1;P2;durP2;ratioP2
67861;SDS011;54665;51.462;6.698;2022-07-05T00:00:50;4.27;;;2.23;;
67861;SDS011;54665;51.462;6.698;2022-07-05T00:03:15;5.68;;;2.28;;
67861;SDS011;54665;51.462;6.698;2022-07-05T00:05:41;4.57;;;2.10;;
67861;SDS011;54665;51.462;6.698;2022-07-05T00:08:06;7.65;;;2.10;;
67861;SDS011;54665;51.462;6.698;2022-07-05T00:10:33;4.30;;;2.00;;
67861;SDS011;54665;51.462;6.698;2022-07-05T00:13:00;3.55;;;2.10;;
67861;SDS011;54665;51.462;6.698;2022-07-05T00:15:26;4.60;;;2.10;;
67861;SDS011;54665;51.462;6.698;2022-07-05T00:17:51;5.93;;;2.10;;
67861;SDS011;54665;51.462;6.698;2022-07-05T00:20:17;5.00;;;2.33;;
67861;SDS011;54665;51.462;6.698;2022-07-05T00:22:42;5.22;;;2.13;;
67861;SDS011;54665;51.462;6.698;2022-07-05T00:25:08;4.07;;;2.00;;
67861;SDS011;54665;51.462;6.698;2022-07-05T00:27:33;6.70;;;2.63;;
67861;SDS011;54665;51.462;6.698;2022-07-05T00:29:59;4.83;;;2.27;;
67861;SDS011;54665;51.462;6.698;2022-07-05T00:32:24;5.17;;;2.00;;
67861;SDS011;54665;51.462;6.698;2022-07-05T00:34:49;3.60;;;1.73;;
67861;SDS011;54665;51.462;6.698;2022-07-05T00:37:15;4.38;;;1.70;;
67861;SDS011;54665;51.462;6.698;2022-07-05T00:39:40;3.10;;;1.73;;
67861;SDS011;54665;51.462;6.698;2022-07-05T00:42:06;3.90;;;1.67;;
67861;SDS011;54665;51.462;6.698;2022-07-05T00:44:33;3.15;;;2.08;;
67861;SDS011;54665;51.462;6.698;2022-07-05T00:47:03;3.17;;;1.70;;
67861;SDS011;54665;51.462;6.698;2022-07-05T00:49:30;2.80;;;1.80;;
67861;SDS011;54665;51.462;6.698;2022-07-05T00:51:55;3.83;;;2.00;;
67861;SDS011;54665;51.462;6.698;2022-07-05T00:54:25;4.00;;;1.77;;
67861;SDS011;54665;51.462;6.698;2022-07-05T00:56:52;3.63;;;1.80;;
67861;SDS011;54665;51.462;6.698;2022-07-05T00:59:17;4.07;;;1.80;;
67861;SDS011;54665;51.462;6.698;2022-07-05T01:01:43;3.90;;;1.70;;
67861;SDS011;54665;51.462;6.698;2022-07-05T01:04:10;4.73;;;1.73;;
67861;SDS011;54665;51.462;6.698;2022-07-05T01:06:36;4.43;;;1.70;;
67861;SDS011;54665;51.462;6.698;2022-07-05T01:09:02;3.70;;;1.50;;
67861;SDS011;54665;51.462;6.698;2022-07-05T01:11:27;2.25;;;1.60;;
67861;SDS011;54665;51.462;6.698;2022-07-05T01:13:54;2.90;;;1.60;;
67861;SDS011;54665;51.462;6.698;2022-07-05T01:16:19;3.95;;;1.60;;
67861;SDS011;54665;51.462;6.698;2022-07-05T01:18:45;2.90;;;1.67;;
67861;SDS011;54665;51.462;6.698;2022-07-05T01:21:12;3.33;;;1.77;;
67861;SDS011;54665;51.462;6.698;2022-07-05T01:23:39;4.10;;;1.50;;
67861;SDS011;54665;51.462;6.698;2022-07-05T01:26:04;3.53;;;1.70;;
67861;SDS011;54665;51.462;6.698;2022-07-05T01:28:32;3.22;;;1.52;;
67861;SDS011;54665;51.462;6.698;2022-07-05T01:30:57;3.97;;;1.80;;
67861;SDS011;54665;51.462;6.698;2022-07-05T01:33:26;3.83;;;1.60;;
67861;SDS011;54665;51.462;6.698;2022-07-05T01:35:56;2.90;;;1.70;;
67861;SDS011;54665;51.462;6.698;2022-07-05T01:38:22;2.90;;;1.70;;
67861;SDS011;54665;51.462;6.698;2022-07-05T01:40:48;3.60;;;1.60;;
67861;SDS011;54665;51.462;6.698;2022-07-05T01:43:17;3.63;;;1.60;;
67861;SDS011;54665;51.462;6.698;2022-07-05T01:45:45;2.90;;;1.58;;
67861;SDS011;54665;51.462;6.698;2022-07-05T01:48:12;2.75;;;1.30;;
67861;SDS011;54665;51.462;6.698;2022-07-05T01:50:40;3.45;;;1.40;;
67861;SDS011;54665;51.462;6.698;2022-07-05T01:53:14;4.20;;;1.40;;
67861;SDS011;54665;51.462;6.698;2022-07-05T01:55:43;4.18;;;1.50;;
67861;SDS011;54665;51.462;6.698;2022-07-05T01:58:09;1.90;;;1.40;;
67861;SDS011;54665;51.462;6.698;2022-07-05T02:00:47;3.10;;;1.40;;
67861;SDS011;54665;51.462;6.698;2022-07-05T02:03:16;3.67;;;1.50;;
67861;SDS011;54665;51.462;6.698;2022-07-05T02:05:42;2.47;;;1.40;;
67861;SDS011;54665;51.462;6.698;2022-07-05T02:08:14;5.13;;;1.85;;
67861;SDS011;54665;51.462;6.698;2022-07-05T02:10:40;4.20;;;1.70;;
67861;SDS011;54665;51.462;6.698;2022-07-05T02:13:07;3.20;;;1.80;;
67861;SDS011;54665;51.462;6.698;2022-07-05T02:15:35;3.47;;;1.80;;
67861;SDS011;54665;51.462;6.698;2022-07-05T02:18:05;5.63;;;2.30;;
67861;SDS011;54665;51.462;6.698;2022-07-05T02:20:32;5.57;;;2.08;;
67861;SDS011;54665;51.462;6.698;2022-07-05T02:22:59;4.57;;;1.90;;
67861;SDS011;54665;51.462;6.698;2022-07-05T02:25:26;4.05;;;1.85;;
67861;SDS011;54665;51.462;6.698;2022-07-05T02:27:53;3.90;;;2.22;;
67861;SDS011;54665;51.462;6.698;2022-07-05T02:30:20;3.97;;;1.73;;
67861;SDS011;54665;51.462;6.698;2022-07-05T02:32:45;4.60;;;1.92;;
67861;SDS011;54665;51.462;6.698;2022-07-05T02:35:12;3.72;;;1.95;;
67861;SDS011;54665;51.462;6.698;2022-07-05T02:37:39;4.23;;;2.00;;
67861;SDS011;54665;51.462;6.698;2022-07-05T02:40:07;3.78;;;1.85;;
67861;SDS011;54665;51.462;6.698;2022-07-05T02:42:39;4.05;;;1.98;;
67861;SDS011;54665;51.462;6.698;2022-07-05T02:45:07;3.70;;;2.17;;
67861;SDS011;54665;51.462;6.698;2022-07-05T02:47:33;5.38;;;2.15;;
67861;SDS011;54665;51.462;6.698;2022-07-05T02:50:04;4.40;;;2.23;;
67861;SDS011;54665;51.462;6.698;2022-07-05T02:52:35;4.55;;;2.42;;
67861;SDS011;54665;51.462;6.698;2022-07-05T02:55:02;4.75;;;2.40;;
67861;SDS011;54665;51.462;6.698;2022-07-05T02:57:29;5.35;;;2.33;;
67861;SDS011;54665;51.462;6.698;2022-07-05T02:59:56;5.35;;;2.50;;
67861;SDS011;54665;51.462;6.698;2022-07-05T03:02:29;3.80;;;2.30;;
67861;SDS011;54665;51.462;6.698;2022-07-05T03:04:57;5.40;;;2.55;;
67861;SDS011;54665;51.462;6.698;2022-07-05T03:07:24;4.28;;;2.50;;
67861;SDS011;54665;51.462;6.698;2022-07-05T03:09:49;5.13;;;2.57;;
67861;SDS011;54665;51.462;6.698;2022-07-05T03:12:15;4.57;;;2.43;;
67861;SDS011;54665;51.462;6.698;2022-07-05T03:14:41;7.30;;;2.70;;
67861;SDS011;54665;51.462;6.698;2022-07-05T03:17:06;4.17;;;2.40;;
67861;SDS011;54665;51.462;6.698;2022-07-05T03:19:32;5.07;;;2.83;;
67861;SDS011;54665;51.462;6.698;2022-07-05T03:21:58;6.43;;;2.80;;
67861;SDS011;54665;51.462;6.698;2022-07-05T03:24:24;5.23;;;2.50;;
67861;SDS011;54665;51.462;6.698;2022-07-05T03:26:49;6.63;;;2.80;;
67861;SDS011;54665;51.462;6.698;2022-07-05T03:29:15;4.37;;;2.80;;
67861;SDS011;54665;51.462;6.698;2022-07-05T03:31:42;5.32;;;2.42;;
67861;SDS011;54665;51.462;6.698;2022-07-05T03:34:07;8.37;;;2.53;;
67861;SDS011;54665;51.462;6.698;2022-07-05T03:36:33;5.15;;;2.47;;
67861;SDS011;54665;51.462;6.698;2022-07-05T03:39:01;5.83;;;2.67;;
67861;SDS011;54665;51.462;6.698;2022-07-05T03:41:27;6.32;;;2.90;;
67861;SDS011;54665;51.462;6.698;2022-07-05T03:43:53;5.80;;;2.90;;
67861;SDS011;54665;51.462;6.698;2022-07-05T03:46:20;4.87;;;2.70;;
67861;SDS011;54665;51.462;6.698;2022-07-05T03:48:45;4.60;;;2.40;;
67861;SDS011;54665;51.462;6.698;2022-07-05T03:51:14;6.93;;;3.27;;
67861;SDS011;54665;51.462;6.698;2022-07-05T03:53:40;6.35;;;3.10;;
67861;SDS011;54665;51.462;6.698;2022-07-05T03:56:08;7.67;;;3.57;;
67861;SDS011;54665;51.462;6.698;2022-07-05T03:58:34;7.35;;;3.40;;
67861;SDS011;54665;51.462;6.698;2022-07-05T04:01:00;7.83;;;3.57;;
67861;SDS011;54665;51.462;6.698;2022-07-05T04:03:26;6.40;;;3.08;;
67861;SDS011;54665;51.462;6.698;2022-07-05T04:05:52;6.10;;;3.45;;
67861;SDS011;54665;51.462;6.698;2022-07-05T04:08:18;6.78;;;3.67;;
67861;SDS011;54665;51.462;6.698;2022-07-05T04:10:45;6.57;;;3.83;;
67861;SDS011;54665;51.462;6.698;2022-07-05T04:13:14;6.60;;;3.80;;
67861;SDS011;54665;51.462;6.698;2022-07-05T04:15:39;8.40;;;4.30;;
67861;SDS011;54665;51.462;6.698;2022-07-05T04:18:05;10.67;;;4.83;;
67861;SDS011;54665;51.462;6.698;2022-07-05T04:20:36;10.70;;;5.78;;
67861;SDS011;54665;51.462;6.698;2022-07-05T04:23:03;12.40;;;6.68;;
67861;SDS011;54665;51.462;6.698;2022-07-05T04:25:29;12.23;;;6.72;;
67861;SDS011;54665;51.462;6.698;2022-07-05T04:28:02;12.30;;;7.00;;
67861;SDS011;54665;51.462;6.698;2022-07-05T04:30:31;8.50;;;4.00;;
67861;SDS011;54665;51.462;6.698;2022-07-05T04:32:59;13.68;;;4.57;;
67861;SDS011;54665;51.462;6.698;2022-07-05T04:35:24;6.83;;;4.13;;
67861;SDS011;54665;51.462;6.698;2022-07-05T04:37:51;9.47;;;5.00;;
67861;SDS011;54665;51.462;6.698;2022-07-05T04:40:17;7.38;;;4.28;;
67861;SDS011;54665;51.462;6.698;2022-07-05T04:42:42;7.50;;;4.33;;
67861;SDS011;54665;51.462;6.698;2022-07-05T04:45:10;7.38;;;4.40;;
67861;SDS011;54665;51.462;6.698;2022-07-05T04:47:37;8.55;;;4.75;;
67861;SDS011;54665;51.462;6.698;2022-07-05T04:50:04;11.27;;;4.63;;
67861;SDS011;54665;51.462;6.698;2022-07-05T04:52:32;11.73;;;5.18;;
67861;SDS011;54665;51.462;6.698;2022-07-05T04:54:58;8.97;;;4.67;;
67861;SDS011;54665;51.462;6.698;2022-07-05T04:57:23;10.47;;;4.83;;
67861;SDS011;54665;51.462;6.698;2022-07-05T04:59:48;7.00;;;4.40;;
67861;SDS011;54665;51.462;6.698;2022-07-05T05:02:14;9.33;;;4.60;;
67861;SDS011;54665;51.462;6.698;2022-07-05T05:04:40;6.25;;;3.90;;
67861;SDS011;54665;51.462;6.698;2022-07-05T05:07:05;8.43;;;4.00;;
67861;SDS011;54665;51.462;6.698;2022-07-05T05:09:30;6.50;;;4.00;;
67861;SDS011;54665;51.462;6.698;2022-07-05T05:11:56;6.77;;;3.90;;
67861;SDS011;54665;51.462;6.698;2022-07-05T05:14:21;7.40;;;4.17;;
67861;SDS011;54665;51.462;6.698;2022-07-05T05:16:46;8.30;;;4.43;;
67861;SDS011;54665;51.462;6.698;2022-07-05T05:19:12;7.00;;;3.90;;
67861;SDS011;54665;51.462;6.698;2022-07-05T05:21:37;7.37;;;3.60;;
67861;SDS011;54665;51.462;6.698;2022-07-05T05:24:03;6.50;;;3.60;;
67861;SDS011;54665;51.462;6.698;2022-07-05T05:26:29;6.88;;;3.75;;
67861;SDS011;54665;51.462;6.698;2022-07-05T05:28:54;6.10;;;3.40;;
67861;SDS011;54665;51.462;6.698;2022-07-05T05:31:20;5.07;;;3.10;;
67861;SDS011;54665;51.462;6.698;2022-07-05T05:33:45;6.13;;;3.53;;
67861;SDS011;54665;51.462;6.698;2022-07-05T05:36:11;6.20;;;3.70;;
67861;SDS011;54665;51.462;6.698;2022-07-05T05:38:36;6.90;;;3.67;;
67861;SDS011;54665;51.462;6.698;2022-07-05T05:41:02;7.07;;;4.00;;
67861;SDS011;54665;51.462;6.698;2022-07-05T05:43:27;5.40;;;3.70;;
67861;SDS011;54665;51.462;6.698;2022-07-05T05:45:53;5.88;;;3.60;;
67861;SDS011;54665;51.462;6.698;2022-07-05T05:48:18;5.93;;;3.90;;
67861;SDS011;54665;51.462;6.698;2022-07-05T05:50:45;6.70;;;3.55;;
67861;SDS011;54665;51.462;6.698;2022-07-05T05:53:11;6.27;;;3.70;;
67861;SDS011;54665;51.462;6.698;2022-07-05T05:55:37;5.90;;;3.40;;
67861;SDS011;54665;51.462;6.698;2022-07-05T06:00:44;6.05;;;3.60;;
67861;SDS011;54665;51.462;6.698;2022-07-05T06:03:13;5.45;;;3.33;;
67861;SDS011;54665;51.462;6.698;2022-07-05T06:05:41;6.35;;;3.20;;
67861;SDS011;54665;51.462;6.698;2022-07-05T06:08:06;4.90;;;3.08;;
67861;SDS011;54665;51.462;6.698;2022-07-05T06:10:32;5.83;;;3.40;;
67861;SDS011;54665;51.462;6.698;2022-07-05T06:13:00;4.68;;;3.10;;
67861;SDS011;54665;51.462;6.698;2022-07-05T06:15:27;4.85;;;3.08;;
67861;SDS011;54665;51.462;6.698;2022-07-05T06:17:53;5.90;;;3.37;;
67861;SDS011;54665;51.462;6.698;2022-07-05T06:20:19;5.55;;;2.60;;
67861;SDS011;54665;51.462;6.698;2022-07-05T06:22:47;4.50;;;2.40;;
67861;SDS011;54665;51.462;6.698;2022-07-05T06:25:13;7.47;;;2.72;;
67861;SDS011;54665;51.462;6.698;2022-07-05T06:27:41;3.53;;;2.20;;
67861;SDS011;54665;51.462;6.698;2022-07-05T06:30:08;3.97;;;2.33;;
67861;SDS011;54665;51.462;6.698;2022-07-05T06:32:34;3.75;;;1.80;;
67861;SDS011;54665;51.462;6.698;2022-07-05T06:35:00;3.30;;;1.90;;
67861;SDS011;54665;51.462;6.698;2022-07-05T06:37:25;3.13;;;1.90;;
67861;SDS011;54665;51.462;6.698;2022-07-05T06:39:51;2.70;;;1.77;;
67861;SDS011;54665;51.462;6.698;2022-07-05T06:42:16;3.47;;;1.90;;
67861;SDS011;54665;51.462;6.698;2022-07-05T06:44:45;4.23;;;1.80;;
67861;SDS011;54665;51.462;6.698;2022-07-05T06:47:10;4.35;;;1.73;;
67861;SDS011;54665;51.462;6.698;2022-07-05T06:49:35;4.07;;;1.63;;
67861;SDS011;54665;51.462;6.698;2022-07-05T06:52:01;2.83;;;1.60;;
67861;SDS011;54665;51.462;6.698;2022-07-05T06:54:26;3.93;;;1.60;;
67861;SDS011;54665;51.462;6.698;2022-07-05T06:56:52;3.17;;;1.52;;
67861;SDS011;54665;51.462;6.698;2022-07-05T06:59:20;3.43;;;1.80;;
67861;SDS011;54665;51.462;6.698;2022-07-05T07:01:46;3.42;;;1.42;;
67861;SDS011;54665;51.462;6.698;2022-07-05T07:04:12;3.47;;;1.80;;
67861;SDS011;54665;51.462;6.698;2022-07-05T07:06:37;2.03;;;1.67;;
67861;SDS011;54665;51.462;6.698;2022-07-05T07:09:02;2.10;;;1.40;;
67861;SDS011;54665;51.462;6.698;2022-07-05T07:11:43;4.32;;;1.90;;
67861;SDS011;54665;51.462;6.698;2022-07-05T07:14:09;3.47;;;1.83;;
67861;SDS011;54665;51.462;6.698;2022-07-05T07:16:35;3.80;;;1.33;;
67861;SDS011;54665;51.462;6.698;2022-07-05T07:19:00;1.93;;;1.50;;
67861;SDS011;54665;51.462;6.698;2022-07-05T07:21:26;4.50;;;1.87;;
67861;SDS011;54665;51.462;6.698;2022-07-05T07:23:51;2.50;;;1.50;;
67861;SDS011;54665;51.462;6.698;2022-07-05T07:26:16;3.20;;;1.57;;
67861;SDS011;54665;51.462;6.698;2022-07-05T07:28:42;4.07;;;1.77;;
67861;SDS011;54665;51.462;6.698;2022-07-05T07:31:07;3.15;;;1.63;;
67861;SDS011;54665;51.462;6.698;2022-07-05T07:33:33;2.87;;;1.60;;
67861;SDS011;54665;51.462;6.698;2022-07-05T07:35:59;3.10;;;1.70;;
67861;SDS011;54665;51.462;6.698;2022-07-05T07:38:24;2.22;;;1.63;;
67861;SDS011;54665;51.462;6.698;2022-07-05T07:40:51;2.77;;;1.40;;
67861;SDS011;54665;51.462;6.698;2022-07-05T07:43:17;3.17;;;1.80;;
67861;SDS011;54665;51.462;6.698;2022-07-05T07:45:42;2.67;;;1.40;;
67861;SDS011;54665;51.462;6.698;2022-07-05T07:48:08;3.72;;;1.40;;
67861;SDS011;54665;51.462;6.698;2022-07-05T07:50:34;4.17;;;1.70;;
67861;SDS011;54665;51.462;6.698;2022-07-05T07:53:00;3.50;;;1.52;;
67861;SDS011;54665;51.462;6.698;2022-07-05T07:55:25;3.20;;;1.47;;
67861;SDS011;54665;51.462;6.698;2022-07-05T07:57:51;2.83;;;1.90;;
67861;SDS011;54665;51.462;6.698;2022-07-05T08:00:16;3.73;;;1.80;;
67861;SDS011;54665;51.462;6.698;2022-07-05T08:02:42;2.97;;;1.70;;
67861;SDS011;54665;51.462;6.698;2022-07-05T08:05:07;2.73;;;1.50;;
67861;SDS011;54665;51.462;6.698;2022-07-05T08:07:35;4.38;;;1.50;;
67861;SDS011;54665;51.462;6.698;2022-07-05T08:10:01;2.40;;;1.40;;
67861;SDS011;54665;51.462;6.698;2022-07-05T08:12:26;2.60;;;1.50;;
67861;SDS011;54665;51.462;6.698;2022-07-05T08:14:52;3.33;;;1.50;;
67861;SDS011;54665;51.462;6.698;2022-07-05T08:17:17;3.55;;;1.67;;
67861;SDS011;54665;51.462;6.698;2022-07-05T08:19:45;3.07;;;1.30;;
67861;SDS011;54665;51.462;6.698;2022-07-05T08:22:31;3.33;;;1.33;;
67861;SDS011;54665;51.462;6.698;2022-07-05T08:24:56;2.83;;;1.48;;
67861;SDS011;54665;51.462;6.698;2022-07-05T08:27:22;3.03;;;1.30;;
67861;SDS011;54665;51.462;6.698;2022-07-05T08:29:51;3.10;;;1.30;;
67861;SDS011;54665;51.462;6.698;2022-07-05T08:32:16;1.70;;;1.10;;
67861;SDS011;54665;51.462;6.698;2022-07-05T08:34:42;2.10;;;1.30;;
67861;SDS011;54665;51.462;6.698;2022-07-05T08:37:07;4.47;;;1.30;;
67861;SDS011;54665;51.462;6.698;2022-07-05T08:39:33;2.90;;;1.60;;
67861;SDS011;54665;51.462;6.698;2022-07-05T08:41:59;2.60;;;1.50;;
67861;SDS011;54665;51.462;6.698;2022-07-05T08:44:26;3.10;;;1.60;;
67861;SDS011;54665;51.462;6.698;2022-07-05T08:46:53;2.42;;;1.50;;
67861;SDS011;54665;51.462;6.698;2022-07-05T08:49:24;3.60;;;1.60;;
67861;SDS011;54665;51.462;6.698;2022-07-05T08:52:02;3.85;;;1.40;;
67861;SDS011;54665;51.462;6.698;2022-07-05T08:54:30;3.20;;;1.40;;
67861;SDS011;54665;51.462;6.698;2022-07-05T08:56:56;2.33;;;1.77;;
67861;SDS011;54665;51.462;6.698;2022-07-05T08:59:22;4.70;;;1.60;;
67861;SDS011;54665;51.462;6.698;2022-07-05T09:01:48;2.42;;;1.58;;
67861;SDS011;54665;51.462;6.698;2022-07-05T09:04:14;2.43;;;1.83;;
67861;SDS011;54665;51.462;6.698;2022-07-05T09:06:42;2.72;;;1.65;;
67861;SDS011;54665;51.462;6.698;2022-07-05T09:09:12;2.45;;;1.80;;
67861;SDS011;54665;51.462;6.698;2022-07-05T09:11:39;3.33;;;1.85;;
67861;SDS011;54665;51.462;6.698;2022-07-05T09:14:27;2.20;;;1.50;;
67861;SDS011;54665;51.462;6.698;2022-07-05T09:16:52;2.87;;;1.60;;
67861;SDS011;54665;51.462;6.698;2022-07-05T09:19:18;2.65;;;1.60;;
67861;SDS011;54665;51.462;6.698;2022-07-05T09:21:44;3.10;;;1.73;;
67861;SDS011;54665;51.462;6.698;2022-07-05T09:24:15;4.50;;;1.80;;
67861;SDS011;54665;51.462;6.698;2022-07-05T09:26:44;3.80;;;1.80;;
67861;SDS011;54665;51.462;6.698;2022-07-05T09:29:17;3.20;;;1.73;;
67861;SDS011;54665;51.462;6.698;2022-07-05T09:31:46;2.88;;;1.60;;
67861;SDS011;54665;51.462;6.698;2022-07-05T09:34:20;2.30;;;1.48;;
67861;SDS011;54665;51.462;6.698;2022-07-05T09:44:45;3.00;;;1.63;;
67861;SDS011;54665;51.462;6.698;2022-07-05T09:47:15;2.65;;;1.50;;
67861;SDS011;54665;51.462;6.698;2022-07-05T09:49:46;2.40;;;1.42;;
67861;SDS011;54665;51.462;6.698;2022-07-05T09:52:29;2.78;;;1.40;;
67861;SDS011;54665;51.462;6.698;2022-07-05T09:57:27;2.78;;;1.30;;
67861;SDS011;54665;51.462;6.698;2022-07-05T09:59:58;1.97;;;1.30;;
67861;SDS011;54665;51.462;6.698;2022-07-05T10:02:38;2.97;;;1.75;;
67861;SDS011;54665;51.462;6.698;2022-07-05T10:05:14;2.80;;;1.60;;
67861;SDS011;54665;51.462;6.698;2022-07-05T10:07:53;2.97;;;1.53;;
67861;SDS011;54665;51.462;6.698;2022-07-05T10:10:26;2.30;;;1.60;;
67861;SDS011;54665;51.462;6.698;2022-07-05T10:12:56;2.60;;;1.60;;
67861;SDS011;54665;51.462;6.698;2022-07-05T10:15:26;2.72;;;1.92;;
67861;SDS011;54665;51.462;6.698;2022-07-05T10:17:58;2.30;;;1.60;;
67861;SDS011;54665;51.462;6.698;2022-07-05T10:20:41;2.93;;;1.80;;
67861;SDS011;54665;51.462;6.698;2022-07-05T10:23:07;2.83;;;1.50;;
67861;SDS011;54665;51.462;6.698;2022-07-05T10:25:38;2.80;;;1.60;;
67861;SDS011;54665;51.462;6.698;2022-07-05T10:28:05;3.53;;;1.60;;
67861;SDS011;54665;51.462;6.698;2022-07-05T10:30:31;3.75;;;1.80;;
67861;SDS011;54665;51.462;6.698;2022-07-05T10:32:58;2.67;;;1.70;;
67861;SDS011;54665;51.462;6.698;2022-07-05T10:35:26;5.05;;;1.90;;
67861;SDS011;54665;51.462;6.698;2022-07-05T10:37:52;2.80;;;1.98;;
67861;SDS011;54665;51.462;6.698;2022-07-05T10:40:18;2.70;;;1.80;;
67861;SDS011;54665;51.462;6.698;2022-07-05T10:42:48;3.00;;;1.60;;
67861;SDS011;54665;51.462;6.698;2022-07-05T10:48:11;3.47;;;1.95;;
67861;SDS011;54665;51.462;6.698;2022-07-05T10:58:32;3.03;;;1.58;;
67861;SDS011;54665;51.462;6.698;2022-07-05T11:03:49;2.72;;;1.60;;
67861;SDS011;54665;51.462;6.698;2022-07-05T11:06:21;3.60;;;1.40;;
67861;SDS011;54665;51.462;6.698;2022-07-05T11:11:27;2.20;;;1.33;;
67861;SDS011;54665;51.462;6.698;2022-07-05T11:16:46;2.85;;;1.40;;
67861;SDS011;54665;51.462;6.698;2022-07-05T11:19:32;1.77;;;1.40;;
67861;SDS011;54665;51.462;6.698;2022-07-05T11:22:04;2.00;;;1.40;;
67861;SDS011;54665;51.462;6.698;2022-07-05T11:24:31;1.70;;;1.30;;
67861;SDS011;54665;51.462;6.698;2022-07-05T11:26:59;3.20;;;1.38;;
67861;SDS011;54665;51.462;6.698;2022-07-05T11:29:45;2.40;;;1.60;;
67861;SDS011;54665;51.462;6.698;2022-07-05T11:32:11;3.28;;;1.58;;
67861;SDS011;54665;51.462;6.698;2022-07-05T11:34:38;2.30;;;1.48;;
67861;SDS011;54665;51.462;6.698;2022-07-05T11:37:26;4.30;;;1.53;;
67861;SDS011;54665;51.462;6.698;2022-07-05T11:42:37;4.10;;;1.67;;
67861;SDS011;54665;51.462;6.698;2022-07-05T11:45:08;2.28;;;1.45;;
67861;SDS011;54665;51.462;6.698;2022-07-05T11:47:34;2.75;;;1.70;;
67861;SDS011;54665;51.462;6.698;2022-07-05T11:50:00;2.93;;;1.60;;
67861;SDS011;54665;51.462;6.698;2022-07-05T11:52:27;2.78;;;1.65;;
67861;SDS011;54665;51.462;6.698;2022-07-05T11:54:55;3.22;;;1.60;;
67861;SDS011;54665;51.462;6.698;2022-07-05T11:57:22;3.20;;;1.75;;
67861;SDS011;54665;51.462;6.698;2022-07-05T11:59:48;2.67;;;1.73;;
67861;SDS011;54665;51.462;6.698;2022-07-05T12:02:13;2.83;;;1.80;;
67861;SDS011;54665;51.462;6.698;2022-07-05T12:04:39;2.20;;;1.80;;
67861;SDS011;54665;51.462;6.698;2022-07-05T12:07:04;3.27;;;1.77;;
67861;SDS011;54665;51.462;6.698;2022-07-05T12:09:30;1.98;;;1.60;;
67861;SDS011;54665;51.462;6.698;2022-07-05T12:12:19;3.35;;;1.65;;
67861;SDS011;54665;51.462;6.698;2022-07-05T12:15:05;2.70;;;1.90;;
67861;SDS011;54665;51.462;6.698;2022-07-05T12:17:32;4.37;;;1.67;;
67861;SDS011;54665;51.462;6.698;2022-07-05T12:19:59;4.63;;;2.05;;
67861;SDS011;54665;51.462;6.698;2022-07-05T12:22:37;2.83;;;2.00;;
67861;SDS011;54665;51.462;6.698;2022-07-05T12:25:05;3.03;;;1.90;;
67861;SDS011;54665;51.462;6.698;2022-07-05T12:27:33;2.60;;;1.80;;
67861;SDS011;54665;51.462;6.698;2022-07-05T12:30:00;3.20;;;2.00;;
67861;SDS011;54665;51.462;6.698;2022-07-05T12:32:28;3.35;;;1.90;;
67861;SDS011;54665;51.462;6.698;2022-07-05T12:34:55;3.45;;;2.10;;
67861;SDS011;54665;51.462;6.698;2022-07-05T12:37:24;3.47;;;2.03;;
67861;SDS011;54665;51.462;6.698;2022-07-05T12:40:07;3.97;;;2.35;;
67861;SDS011;54665;51.462;6.698;2022-07-05T12:42:34;4.22;;;2.40;;
67861;SDS011;54665;51.462;6.698;2022-07-05T12:45:14;4.68;;;2.08;;
67861;SDS011;54665;51.462;6.698;2022-07-05T12:47:51;2.92;;;2.17;;
67861;SDS011;54665;51.462;6.698;2022-07-05T12:50:19;2.87;;;2.20;;
67861;SDS011;54665;51.462;6.698;2022-07-05T12:55:35;4.00;;;2.20;;
67861;SDS011;54665;51.462;6.698;2022-07-05T12:58:20;4.05;;;2.28;;
67861;SDS011;54665;51.462;6.698;2022-07-05T13:04:33;5.15;;;2.60;;
67861;SDS011;54665;51.462;6.698;2022-07-05T13:07:02;5.73;;;2.70;;
67861;SDS011;54665;51.462;6.698;2022-07-05T13:14:46;4.90;;;2.72;;
67861;SDS011;54665;51.462;6.698;2022-07-05T13:17:16;4.53;;;2.63;;
67861;SDS011;54665;51.462;6.698;2022-07-05T13:19:43;3.53;;;2.38;;
67861;SDS011;54665;51.462;6.698;2022-07-05T13:22:10;6.65;;;2.58;;
67861;SDS011;54665;51.462;6.698;2022-07-05T13:24:36;6.43;;;2.60;;
67861;SDS011;54665;51.462;6.698;2022-07-05T13:27:01;5.60;;;2.70;;
67861;SDS011;54665;51.462;6.698;2022-07-05T13:29:27;4.38;;;2.40;;
67861;SDS011;54665;51.462;6.698;2022-07-05T13:31:53;4.35;;;2.45;;
67861;SDS011;54665;51.462;6.698;2022-07-05T13:34:19;5.73;;;2.73;;
67861;SDS011;54665;51.462;6.698;2022-07-05T13:36:48;3.88;;;2.90;;
67861;SDS011;54665;51.462;6.698;2022-07-05T13:39:16;6.38;;;2.90;;
67861;SDS011;54665;51.462;6.698;2022-07-05T13:41:41;4.65;;;2.80;;
67861;SDS011;54665;51.462;6.698;2022-07-05T13:44:07;3.37;;;2.33;;
67861;SDS011;54665;51.462;6.698;2022-07-05T13:46:32;5.93;;;3.20;;
67861;SDS011;54665;51.462;6.698;2022-07-05T13:48:58;5.32;;;2.72;;
67861;SDS011;54665;51.462;6.698;2022-07-05T13:51:23;5.20;;;3.50;;
67861;SDS011;54665;51.462;6.698;2022-07-05T13:53:49;5.20;;;3.27;;
67861;SDS011;54665;51.462;6.698;2022-07-05T13:56:14;4.43;;;2.80;;
67861;SDS011;54665;51.462;6.698;2022-07-05T13:58:39;5.80;;;3.10;;
67861;SDS011;54665;51.462;6.698;2022-07-05T14:01:05;3.05;;;2.47;;
67861;SDS011;54665;51.462;6.698;2022-07-05T14:03:30;4.60;;;2.70;;
67861;SDS011;54665;51.462;6.698;2022-07-05T14:05:56;5.68;;;3.45;;
67861;SDS011;54665;51.462;6.698;2022-07-05T14:08:22;4.33;;;2.57;;
67861;SDS011;54665;51.462;6.698;2022-07-05T14:10:52;5.10;;;3.05;;
67861;SDS011;54665;51.462;6.698;2022-07-05T14:13:22;8.40;;;3.73;;
67861;SDS011;54665;51.462;6.698;2022-07-05T14:15:49;5.20;;;3.30;;
67861;SDS011;54665;51.462;6.698;2022-07-05T14:20:44;4.97;;;2.85;;
67861;SDS011;54665;51.462;6.698;2022-07-05T14:23:10;5.35;;;3.08;;
67861;SDS011;54665;51.462;6.698;2022-07-05T14:25:37;4.43;;;3.33;;
67861;SDS011;54665;51.462;6.698;2022-07-05T14:28:03;6.70;;;3.70;;
67861;SDS011;54665;51.462;6.698;2022-07-05T14:30:36;5.53;;;3.92;;
67861;SDS011;54665;51.462;6.698;2022-07-05T14:33:03;6.85;;;4.53;;
67861;SDS011;54665;51.462;6.698;2022-07-05T14:35:30;8.63;;;4.65;;
67861;SDS011;54665;51.462;6.698;2022-07-05T14:37:57;6.20;;;4.50;;
67861;SDS011;54665;51.462;6.698;2022-07-05T14:40:23;7.18;;;4.80;;
67861;SDS011;54665;51.462;6.698;2022-07-05T14:42:50;6.70;;;4.18;;
67861;SDS011;54665;51.462;6.698;2022-07-05T14:45:16;6.05;;;3.63;;
67861;SDS011;54665;51.462;6.698;2022-07-05T14:47:41;5.07;;;3.67;;
67861;SDS011;54665;51.462;6.698;2022-07-05T14:50:06;6.37;;;3.97;;
67861;SDS011;54665;51.462;6.698;2022-07-05T14:52:32;4.30;;;3.60;;
67861;SDS011;54665;51.462;6.698;2022-07-05T14:54:57;5.37;;;3.10;;
67861;SDS011;54665;51.462;6.698;2022-07-05T14:57:23;6.10;;;3.60;;
67861;SDS011;54665;51.462;6.698;2022-07-05T14:59:48;5.90;;;3.47;;
67861;SDS011;54665;51.462;6.698;2022-07-05T15:02:14;4.40;;;3.00;;
67861;SDS011;54665;51.462;6.698;2022-07-05T15:04:39;5.27;;;3.00;;
67861;SDS011;54665;51.462;6.698;2022-07-05T15:07:05;4.60;;;3.20;;
67861;SDS011;54665;51.462;6.698;2022-07-05T15:09:31;4.53;;;2.50;;
67861;SDS011;54665;51.462;6.698;2022-07-05T15:11:57;4.82;;;2.40;;
67861;SDS011;54665;51.462;6.698;2022-07-05T15:14:22;5.53;;;2.50;;
67861;SDS011;54665;51.462;6.698;2022-07-05T15:16:48;3.77;;;2.40;;
67861;SDS011;54665;51.462;6.698;2022-07-05T15:19:13;3.27;;;2.37;;
67861;SDS011;54665;51.462;6.698;2022-07-05T15:21:38;4.00;;;2.50;;
67861;SDS011;54665;51.462;6.698;2022-07-05T15:24:04;4.07;;;3.03;;
67861;SDS011;54665;51.462;6.698;2022-07-05T15:26:31;6.60;;;2.80;;
67861;SDS011;54665;51.462;6.698;2022-07-05T15:29:01;3.67;;;2.90;;
67861;SDS011;54665;51.462;6.698;2022-07-05T15:31:29;6.03;;;2.77;;
67861;SDS011;54665;51.462;6.698;2022-07-05T15:33:56;4.32;;;2.80;;
67861;SDS011;54665;51.462;6.698;2022-07-05T15:36:22;5.55;;;2.88;;
67861;SDS011;54665;51.462;6.698;2022-07-05T15:38:48;4.10;;;2.80;;